sensor_id;sensor_type;location;lat;lon;timestamp;temperature;humidity
5061;DHT22;2549;52.128;21.068;2022-10-13T00:00:42;11.70;99.30
5061;DHT22;2549;52.128;21.068;2022-10-13T00:03:09;11.60;99.30
5061;DHT22;2549;52.128;21.068;2022-10-13T00:05:45;11.60;99.20
5061;DHT22;2549;52.128;21.068;2022-10-13T00:08:14;11.60;99.20
5061;DHT22;2549;52.128;21.068;2022-10-13T00:10:41;11.60;99.20
5061;DHT22;2549;52.128;21.068;2022-10-13T00:13:08;11.50;99.10
5061;DHT22;2549;52.128;21.068;2022-10-13T00:15:43;11.50;99.20
5061;DHT22;2549;52.128;21.068;2022-10-13T00:18:10;11.50;99.20
5061;DHT22;2549;52.128;21.068;2022-10-13T00:20:46;11.50;99.10
5061;DHT22;2549;52.128;21.068;2022-10-13T00:25:47;11.50;99.10
5061;DHT22;2549;52.128;21.068;2022-10-13T00:28:15;11.50;99.10
5061;DHT22;2549;52.128;21.068;2022-10-13T00:30:43;11.40;99.00
5061;DHT22;2549;52.128;21.068;2022-10-13T00:33:11;11.50;99.00
5061;DHT22;2549;52.128;21.068;2022-10-13T00:35:43;11.50;99.00
5061;DHT22;2549;52.128;21.068;2022-10-13T00:38:11;11.40;99.00
5061;DHT22;2549;52.128;21.068;2022-10-13T00:43:22;11.40;99.00
5061;DHT22;2549;52.128;21.068;2022-10-13T00:45:50;11.40;99.00
5061;DHT22;2549;52.128;21.068;2022-10-13T00:48:29;11.30;99.10
5061;DHT22;2549;52.128;21.068;2022-10-13T00:50:57;11.30;99.00
5061;DHT22;2549;52.128;21.068;2022-10-13T00:53:30;11.30;99.00
5061;DHT22;2549;52.128;21.068;2022-10-13T00:55:58;11.30;98.90
5061;DHT22;2549;52.128;21.068;2022-10-13T00:58:26;11.30;99.00
5061;DHT22;2549;52.128;21.068;2022-10-13T01:00:58;11.20;98.90
5061;DHT22;2549;52.128;21.068;2022-10-13T01:03:25;11.20;98.90
5061;DHT22;2549;52.128;21.068;2022-10-13T01:05:55;11.20;98.90
5061;DHT22;2549;52.128;21.068;2022-10-13T01:08:23;11.20;98.90
5061;DHT22;2549;52.128;21.068;2022-10-13T01:11:23;11.20;98.90
5061;DHT22;2549;52.128;21.068;2022-10-13T01:21:35;11.10;98.80
5061;DHT22;2549;52.128;21.068;2022-10-13T01:30:09;11.00;98.60
5061;DHT22;2549;52.128;21.068;2022-10-13T01:38:07;10.90;98.80
5061;DHT22;2549;52.128;21.068;2022-10-13T01:40:46;10.90;98.50
5061;DHT22;2549;52.128;21.068;2022-10-13T01:43:30;10.90;98.40
5061;DHT22;2549;52.128;21.068;2022-10-13T01:46:13;10.90;98.40
5061;DHT22;2549;52.128;21.068;2022-10-13T01:48:42;10.90;98.40
5061;DHT22;2549;52.128;21.068;2022-10-13T01:51:13;10.90;98.30
5061;DHT22;2549;52.128;21.068;2022-10-13T01:53:41;10.90;98.30
5061;DHT22;2549;52.128;21.068;2022-10-13T01:56:09;10.80;98.30
5061;DHT22;2549;52.128;21.068;2022-10-13T01:58:37;10.80;98.30
5061;DHT22;2549;52.128;21.068;2022-10-13T02:04:36;10.80;98.30
5061;DHT22;2549;52.128;21.068;2022-10-13T02:07:30;10.70;98.20
5061;DHT22;2549;52.128;21.068;2022-10-13T02:10:19;10.70;98.10
5061;DHT22;2549;52.128;21.068;2022-10-13T02:12:58;10.70;98.20
5061;DHT22;2549;52.128;21.068;2022-10-13T02:15:37;10.60;98.10
5061;DHT22;2549;52.128;21.068;2022-10-13T02:18:07;10.60;97.90
5061;DHT22;2549;52.128;21.068;2022-10-13T02:20:35;10.60;97.90
5061;DHT22;2549;52.128;21.068;2022-10-13T02:23:07;10.60;97.90
5061;DHT22;2549;52.128;21.068;2022-10-13T02:25:36;10.60;97.90
5061;DHT22;2549;52.128;21.068;2022-10-13T02:28:03;10.60;97.90
5061;DHT22;2549;52.128;21.068;2022-10-13T02:30:32;10.50;97.80
5061;DHT22;2549;52.128;21.068;2022-10-13T02:33:02;10.50;97.80
5061;DHT22;2549;52.128;21.068;2022-10-13T02:35:29;10.50;98.00
5061;DHT22;2549;52.128;21.068;2022-10-13T02:37:56;10.50;98.10
5061;DHT22;2549;52.128;21.068;2022-10-13T02:40:23;10.40;98.00
5061;DHT22;2549;52.128;21.068;2022-10-13T02:42:50;10.40;98.10
5061;DHT22;2549;52.128;21.068;2022-10-13T02:45:17;10.40;98.10
5061;DHT22;2549;52.128;21.068;2022-10-13T02:47:44;10.40;98.20
5061;DHT22;2549;52.128;21.068;2022-10-13T02:50:12;10.30;98.20
5061;DHT22;2549;52.128;21.068;2022-10-13T02:52:39;10.30;98.10
5061;DHT22;2549;52.128;21.068;2022-10-13T02:55:06;10.30;98.10
5061;DHT22;2549;52.128;21.068;2022-10-13T02:57:34;10.30;98.00
5061;DHT22;2549;52.128;21.068;2022-10-13T03:00:01;10.20;98.00
5061;DHT22;2549;52.128;21.068;2022-10-13T03:02:28;10.20;98.00
5061;DHT22;2549;52.128;21.068;2022-10-13T03:04:54;10.20;97.90
5061;DHT22;2549;52.128;21.068;2022-10-13T03:07:22;10.30;97.90
5061;DHT22;2549;52.128;21.068;2022-10-13T03:09:49;10.20;98.10
5061;DHT22;2549;52.128;21.068;2022-10-13T03:12:16;10.20;97.70
5061;DHT22;2549;52.128;21.068;2022-10-13T03:14:43;10.20;97.70
5061;DHT22;2549;52.128;21.068;2022-10-13T03:17:10;10.20;97.70
5061;DHT22;2549;52.128;21.068;2022-10-13T03:19:39;10.20;97.70
5061;DHT22;2549;52.128;21.068;2022-10-13T03:22:06;10.20;97.70
5061;DHT22;2549;52.128;21.068;2022-10-13T03:24:32;10.10;97.60
5061;DHT22;2549;52.128;21.068;2022-10-13T03:26:59;10.10;97.60
5061;DHT22;2549;52.128;21.068;2022-10-13T03:29:26;10.10;97.60
5061;DHT22;2549;52.128;21.068;2022-10-13T03:31:53;10.10;97.50
5061;DHT22;2549;52.128;21.068;2022-10-13T03:34:20;10.10;97.60
5061;DHT22;2549;52.128;21.068;2022-10-13T03:36:47;10.00;97.50
5061;DHT22;2549;52.128;21.068;2022-10-13T03:39:14;10.00;97.50
5061;DHT22;2549;52.128;21.068;2022-10-13T03:41:41;10.00;97.40
5061;DHT22;2549;52.128;21.068;2022-10-13T03:44:11;10.00;97.30
5061;DHT22;2549;52.128;21.068;2022-10-13T03:46:38;10.00;97.20
5061;DHT22;2549;52.128;21.068;2022-10-13T03:49:06;9.90;97.60
5061;DHT22;2549;52.128;21.068;2022-10-13T03:51:33;9.90;97.80
5061;DHT22;2549;52.128;21.068;2022-10-13T03:54:00;9.90;97.90
5061;DHT22;2549;52.128;21.068;2022-10-13T03:56:27;9.90;97.80
5061;DHT22;2549;52.128;21.068;2022-10-13T03:58:55;9.90;97.80
5061;DHT22;2549;52.128;21.068;2022-10-13T04:01:24;9.80;97.70
5061;DHT22;2549;52.128;21.068;2022-10-13T04:03:52;9.80;97.80
5061;DHT22;2549;52.128;21.068;2022-10-13T04:06:22;9.80;97.70
5061;DHT22;2549;52.128;21.068;2022-10-13T04:08:49;9.80;97.80
5061;DHT22;2549;52.128;21.068;2022-10-13T04:11:17;9.70;97.70
5061;DHT22;2549;52.128;21.068;2022-10-13T04:13:44;9.70;97.70
5061;DHT22;2549;52.128;21.068;2022-10-13T04:18:43;9.70;97.80
5061;DHT22;2549;52.128;21.068;2022-10-13T04:21:12;9.70;97.90
5061;DHT22;2549;52.128;21.068;2022-10-13T04:23:40;9.70;98.00
5061;DHT22;2549;52.128;21.068;2022-10-13T04:26:14;9.70;98.10
5061;DHT22;2549;52.128;21.068;2022-10-13T04:28:41;9.60;98.00
5061;DHT22;2549;52.128;21.068;2022-10-13T04:31:08;9.70;98.10
5061;DHT22;2549;52.128;21.068;2022-10-13T04:33:35;9.60;98.00
5061;DHT22;2549;52.128;21.068;2022-10-13T04:36:06;9.60;98.00
5061;DHT22;2549;52.128;21.068;2022-10-13T04:38:33;9.60;97.80
5061;DHT22;2549;52.128;21.068;2022-10-13T04:41:07;9.60;97.60
5061;DHT22;2549;52.128;21.068;2022-10-13T04:43:34;9.60;97.50
5061;DHT22;2549;52.128;21.068;2022-10-13T04:46:12;9.60;97.40
5061;DHT22;2549;52.128;21.068;2022-10-13T04:48:40;9.60;97.40
5061;DHT22;2549;52.128;21.068;2022-10-13T04:51:15;9.50;97.30
5061;DHT22;2549;52.128;21.068;2022-10-13T04:53:43;9.50;97.40
5061;DHT22;2549;52.128;21.068;2022-10-13T04:56:15;9.50;97.40
5061;DHT22;2549;52.128;21.068;2022-10-13T04:58:44;9.50;97.30
5061;DHT22;2549;52.128;21.068;2022-10-13T05:01:14;9.40;97.10
5061;DHT22;2549;52.128;21.068;2022-10-13T05:03:52;9.40;97.10
5061;DHT22;2549;52.128;21.068;2022-10-13T05:06:24;9.40;97.00
5061;DHT22;2549;52.128;21.068;2022-10-13T05:08:51;9.40;97.00
5061;DHT22;2549;52.128;21.068;2022-10-13T05:11:18;9.40;97.00
5061;DHT22;2549;52.128;21.068;2022-10-13T05:13:47;9.30;97.00
5061;DHT22;2549;52.128;21.068;2022-10-13T05:16:15;9.30;97.00
5061;DHT22;2549;52.128;21.068;2022-10-13T05:18:42;9.30;97.10
5061;DHT22;2549;52.128;21.068;2022-10-13T05:21:16;9.30;97.10
5061;DHT22;2549;52.128;21.068;2022-10-13T05:23:43;9.30;97.10
5061;DHT22;2549;52.128;21.068;2022-10-13T05:26:16;9.30;97.20
5061;DHT22;2549;52.128;21.068;2022-10-13T05:28:43;9.30;97.20
5061;DHT22;2549;52.128;21.068;2022-10-13T05:31:16;9.30;97.50
5061;DHT22;2549;52.128;21.068;2022-10-13T05:33:45;9.30;97.20
5061;DHT22;2549;52.128;21.068;2022-10-13T05:36:14;9.20;97.20
5061;DHT22;2549;52.128;21.068;2022-10-13T05:38:42;9.20;97.10
5061;DHT22;2549;52.128;21.068;2022-10-13T05:41:11;9.30;97.30
5061;DHT22;2549;52.128;21.068;2022-10-13T05:43:39;9.20;97.30
5061;DHT22;2549;52.128;21.068;2022-10-13T05:46:07;9.20;97.40
5061;DHT22;2549;52.128;21.068;2022-10-13T05:48:35;9.20;97.40
5061;DHT22;2549;52.128;21.068;2022-10-13T05:51:06;9.20;97.60
5061;DHT22;2549;52.128;21.068;2022-10-13T05:53:37;9.20;97.70
5061;DHT22;2549;52.128;21.068;2022-10-13T05:56:09;9.30;98.00
5061;DHT22;2549;52.128;21.068;2022-10-13T05:58:41;9.30;98.10
5061;DHT22;2549;52.128;21.068;2022-10-13T06:01:12;9.30;98.20
5061;DHT22;2549;52.128;21.068;2022-10-13T06:03:41;9.30;98.40
5061;DHT22;2549;52.128;21.068;2022-10-13T06:06:08;9.30;98.50
5061;DHT22;2549;52.128;21.068;2022-10-13T06:08:36;9.30;98.60
5061;DHT22;2549;52.128;21.068;2022-10-13T06:11:04;9.40;98.70
5061;DHT22;2549;52.128;21.068;2022-10-13T06:13:31;9.40;98.80
5061;DHT22;2549;52.128;21.068;2022-10-13T06:15:59;9.40;99.00
5061;DHT22;2549;52.128;21.068;2022-10-13T06:18:27;9.40;99.20
5061;DHT22;2549;52.128;21.068;2022-10-13T06:20:54;9.50;99.30
5061;DHT22;2549;52.128;21.068;2022-10-13T06:23:21;9.50;99.40
5061;DHT22;2549;52.128;21.068;2022-10-13T06:28:16;9.60;99.80
5061;DHT22;2549;52.128;21.068;2022-10-13T06:30:45;9.60;99.90
5061;DHT22;2549;52.128;21.068;2022-10-13T06:33:15;9.70;99.90
5061;DHT22;2549;52.128;21.068;2022-10-13T06:35:41;9.70;99.90
5061;DHT22;2549;52.128;21.068;2022-10-13T06:38:08;9.70;99.90
5061;DHT22;2549;52.128;21.068;2022-10-13T06:40:35;9.80;99.90
5061;DHT22;2549;52.128;21.068;2022-10-13T06:43:02;9.80;99.90
5061;DHT22;2549;52.128;21.068;2022-10-13T06:45:29;9.90;99.90
5061;DHT22;2549;52.128;21.068;2022-10-13T06:47:56;9.90;99.90
5061;DHT22;2549;52.128;21.068;2022-10-13T06:50:23;10.00;99.90
5061;DHT22;2549;52.128;21.068;2022-10-13T06:52:50;10.00;99.90
5061;DHT22;2549;52.128;21.068;2022-10-13T06:55:17;10.00;99.90
5061;DHT22;2549;52.128;21.068;2022-10-13T06:57:44;10.10;99.90
5061;DHT22;2549;52.128;21.068;2022-10-13T07:00:11;10.10;99.90
5061;DHT22;2549;52.128;21.068;2022-10-13T07:02:38;10.20;99.90
5061;DHT22;2549;52.128;21.068;2022-10-13T07:05:05;10.20;99.90
5061;DHT22;2549;52.128;21.068;2022-10-13T07:07:32;10.30;99.90
5061;DHT22;2549;52.128;21.068;2022-10-13T07:09:59;10.30;99.90
5061;DHT22;2549;52.128;21.068;2022-10-13T07:12:26;10.40;99.90
5061;DHT22;2549;52.128;21.068;2022-10-13T07:14:53;10.40;99.90
5061;DHT22;2549;52.128;21.068;2022-10-13T07:17:19;10.50;99.90
5061;DHT22;2549;52.128;21.068;2022-10-13T07:19:47;10.50;99.90
5061;DHT22;2549;52.128;21.068;2022-10-13T07:22:14;10.60;99.90
5061;DHT22;2549;52.128;21.068;2022-10-13T07:24:42;10.60;99.90
5061;DHT22;2549;52.128;21.068;2022-10-13T07:27:09;10.70;99.90
5061;DHT22;2549;52.128;21.068;2022-10-13T07:29:35;10.70;99.90
5061;DHT22;2549;52.128;21.068;2022-10-13T07:32:02;10.80;99.90
5061;DHT22;2549;52.128;21.068;2022-10-13T07:34:29;10.80;99.90
5061;DHT22;2549;52.128;21.068;2022-10-13T07:36:56;10.90;99.90
5061;DHT22;2549;52.128;21.068;2022-10-13T07:39:25;10.90;99.90
5061;DHT22;2549;52.128;21.068;2022-10-13T07:41:52;10.90;99.90
5061;DHT22;2549;52.128;21.068;2022-10-13T07:44:19;11.00;99.90
5061;DHT22;2549;52.128;21.068;2022-10-13T07:46:45;11.00;99.90
5061;DHT22;2549;52.128;21.068;2022-10-13T07:49:12;11.10;99.90
5061;DHT22;2549;52.128;21.068;2022-10-13T07:51:42;11.10;99.90
5061;DHT22;2549;52.128;21.068;2022-10-13T07:54:09;11.10;99.90
5061;DHT22;2549;52.128;21.068;2022-10-13T07:56:36;11.20;99.90
5061;DHT22;2549;52.128;21.068;2022-10-13T07:59:03;11.20;99.90
5061;DHT22;2549;52.128;21.068;2022-10-13T08:01:30;11.30;99.90
5061;DHT22;2549;52.128;21.068;2022-10-13T08:03:57;11.30;99.90
5061;DHT22;2549;52.128;21.068;2022-10-13T08:06:25;11.40;99.90
5061;DHT22;2549;52.128;21.068;2022-10-13T08:08:52;11.40;99.90
5061;DHT22;2549;52.128;21.068;2022-10-13T08:11:19;11.50;99.90
5061;DHT22;2549;52.128;21.068;2022-10-13T08:13:50;11.50;99.90
5061;DHT22;2549;52.128;21.068;2022-10-13T08:16:17;11.60;99.90
5061;DHT22;2549;52.128;21.068;2022-10-13T08:18:45;11.60;99.90
5061;DHT22;2549;52.128;21.068;2022-10-13T08:21:13;11.60;99.90
5061;DHT22;2549;52.128;21.068;2022-10-13T08:24:02;11.70;99.90
5061;DHT22;2549;52.128;21.068;2022-10-13T08:26:29;11.70;99.90
5061;DHT22;2549;52.128;21.068;2022-10-13T08:28:56;11.80;99.90
5061;DHT22;2549;52.128;21.068;2022-10-13T08:31:43;11.80;99.90
5061;DHT22;2549;52.128;21.068;2022-10-13T08:34:11;11.90;99.90
5061;DHT22;2549;52.128;21.068;2022-10-13T08:36:38;11.90;99.90
5061;DHT22;2549;52.128;21.068;2022-10-13T08:39:05;11.90;99.90
5061;DHT22;2549;52.128;21.068;2022-10-13T08:41:37;12.00;99.90
5061;DHT22;2549;52.128;21.068;2022-10-13T08:49:46;12.10;99.90
5061;DHT22;2549;52.128;21.068;2022-10-13T08:52:19;12.20;99.90
5061;DHT22;2549;52.128;21.068;2022-10-13T08:54:48;12.20;99.90
5061;DHT22;2549;52.128;21.068;2022-10-13T08:57:16;12.30;99.90
5061;DHT22;2549;52.128;21.068;2022-10-13T08:59:44;12.30;99.90
5061;DHT22;2549;52.128;21.068;2022-10-13T09:02:28;12.40;99.90
5061;DHT22;2549;52.128;21.068;2022-10-13T09:04:56;12.40;99.90
5061;DHT22;2549;52.128;21.068;2022-10-13T09:07:28;12.50;99.90
5061;DHT22;2549;52.128;21.068;2022-10-13T09:09:56;12.50;99.90
5061;DHT22;2549;52.128;21.068;2022-10-13T09:12:24;12.60;99.90
5061;DHT22;2549;52.128;21.068;2022-10-13T09:15:04;12.60;99.90
5061;DHT22;2549;52.128;21.068;2022-10-13T09:17:32;12.70;99.90
5061;DHT22;2549;52.128;21.068;2022-10-13T09:25:21;12.80;99.90
5061;DHT22;2549;52.128;21.068;2022-10-13T09:27:52;12.90;99.90
5061;DHT22;2549;52.128;21.068;2022-10-13T09:30:41;13.00;99.90
5061;DHT22;2549;52.128;21.068;2022-10-13T09:35:45;13.00;99.90
5061;DHT22;2549;52.128;21.068;2022-10-13T09:38:25;13.10;99.90
5061;DHT22;2549;52.128;21.068;2022-10-13T09:41:04;13.10;99.90
5061;DHT22;2549;52.128;21.068;2022-10-13T09:43:32;13.10;99.90
5061;DHT22;2549;52.128;21.068;2022-10-13T09:46:01;13.20;99.90
5061;DHT22;2549;52.128;21.068;2022-10-13T09:48:33;13.30;99.90
5061;DHT22;2549;52.128;21.068;2022-10-13T09:51:00;13.30;99.50
5061;DHT22;2549;52.128;21.068;2022-10-13T09:53:32;13.30;99.20
5061;DHT22;2549;52.128;21.068;2022-10-13T09:58:59;13.40;97.80
5061;DHT22;2549;52.128;21.068;2022-10-13T10:01:33;13.40;97.30
5061;DHT22;2549;52.128;21.068;2022-10-13T10:04:03;13.50;97.10
5061;DHT22;2549;52.128;21.068;2022-10-13T10:06:33;13.50;96.90
5061;DHT22;2549;52.128;21.068;2022-10-13T10:09:08;13.60;96.80
5061;DHT22;2549;52.128;21.068;2022-10-13T10:11:42;13.70;96.90
5061;DHT22;2549;52.128;21.068;2022-10-13T10:14:26;13.80;96.70
5061;DHT22;2549;52.128;21.068;2022-10-13T10:25:23;13.90;96.30
5061;DHT22;2549;52.128;21.068;2022-10-13T10:31:29;14.00;96.00
5061;DHT22;2549;52.128;21.068;2022-10-13T10:45:02;14.20;94.40
5061;DHT22;2549;52.128;21.068;2022-10-13T10:47:36;14.20;94.10
5061;DHT22;2549;52.128;21.068;2022-10-13T10:50:06;14.20;94.30
5061;DHT22;2549;52.128;21.068;2022-10-13T10:55:32;14.30;94.30
5061;DHT22;2549;52.128;21.068;2022-10-13T10:58:05;14.30;94.20
5061;DHT22;2549;52.128;21.068;2022-10-13T11:00:39;14.30;93.90
5061;DHT22;2549;52.128;21.068;2022-10-13T11:05:59;14.40;93.80
5061;DHT22;2549;52.128;21.068;2022-10-13T11:08:40;14.50;93.90
5061;DHT22;2549;52.128;21.068;2022-10-13T11:16:31;14.50;93.60
5061;DHT22;2549;52.128;21.068;2022-10-13T11:40:57;14.80;93.80
5061;DHT22;2549;52.128;21.068;2022-10-13T11:43:47;14.90;93.90
5061;DHT22;2549;52.128;21.068;2022-10-13T11:49:36;14.90;94.00
5061;DHT22;2549;52.128;21.068;2022-10-13T11:52:24;14.90;93.50
5061;DHT22;2549;52.128;21.068;2022-10-13T11:54:59;14.90;93.40
5061;DHT22;2549;52.128;21.068;2022-10-13T11:57:27;15.00;93.60
5061;DHT22;2549;52.128;21.068;2022-10-13T11:59:55;15.00;93.70
5061;DHT22;2549;52.128;21.068;2022-10-13T12:02:24;15.00;93.40
5061;DHT22;2549;52.128;21.068;2022-10-13T12:05:46;15.10;93.30
5061;DHT22;2549;52.128;21.068;2022-10-13T12:07:58;15.10;93.20
5061;DHT22;2549;52.128;21.068;2022-10-13T12:12:58;15.20;93.20
5061;DHT22;2549;52.128;21.068;2022-10-13T12:15:40;15.20;93.30
5061;DHT22;2549;52.128;21.068;2022-10-13T12:18:38;15.20;93.10
5061;DHT22;2549;52.128;21.068;2022-10-13T12:21:14;15.30;93.10
5061;DHT22;2549;52.128;21.068;2022-10-13T12:23:42;15.20;93.00
5061;DHT22;2549;52.128;21.068;2022-10-13T12:26:22;15.20;93.10
5061;DHT22;2549;52.128;21.068;2022-10-13T12:29:02;15.30;93.00
5061;DHT22;2549;52.128;21.068;2022-10-13T12:31:41;15.30;93.00
5061;DHT22;2549;52.128;21.068;2022-10-13T12:34:17;15.30;93.10
5061;DHT22;2549;52.128;21.068;2022-10-13T12:36:45;15.40;93.10
5061;DHT22;2549;52.128;21.068;2022-10-13T12:39:17;15.40;93.00
5061;DHT22;2549;52.128;21.068;2022-10-13T12:41:46;15.40;93.00
5061;DHT22;2549;52.128;21.068;2022-10-13T12:44:20;15.40;92.80
5061;DHT22;2549;52.128;21.068;2022-10-13T12:46:50;15.40;92.60
5061;DHT22;2549;52.128;21.068;2022-10-13T12:52:02;15.40;92.90
5061;DHT22;2549;52.128;21.068;2022-10-13T12:54:32;15.50;92.90
5061;DHT22;2549;52.128;21.068;2022-10-13T12:57:03;15.50;93.00
5061;DHT22;2549;52.128;21.068;2022-10-13T12:59:31;15.50;93.10
5061;DHT22;2549;52.128;21.068;2022-10-13T13:02:00;15.60;93.10
5061;DHT22;2549;52.128;21.068;2022-10-13T13:04:48;15.60;93.20
5061;DHT22;2549;52.128;21.068;2022-10-13T13:07:42;15.60;93.20
5061;DHT22;2549;52.128;21.068;2022-10-13T13:10:18;15.60;92.90
5061;DHT22;2549;52.128;21.068;2022-10-13T13:12:50;15.60;93.10
5061;DHT22;2549;52.128;21.068;2022-10-13T13:17:52;15.60;93.30
5061;DHT22;2549;52.128;21.068;2022-10-13T13:20:32;15.60;93.50
5061;DHT22;2549;52.128;21.068;2022-10-13T13:22:59;15.60;93.50
5061;DHT22;2549;52.128;21.068;2022-10-13T13:25:26;15.60;93.50
5061;DHT22;2549;52.128;21.068;2022-10-13T13:27:53;15.60;93.50
5061;DHT22;2549;52.128;21.068;2022-10-13T13:30:22;15.60;93.30
5061;DHT22;2549;52.128;21.068;2022-10-13T13:32:50;15.60;93.70
5061;DHT22;2549;52.128;21.068;2022-10-13T13:35:17;15.60;93.40
5061;DHT22;2549;52.128;21.068;2022-10-13T13:37:48;15.60;93.40
5061;DHT22;2549;52.128;21.068;2022-10-13T13:40:22;15.60;93.50
5061;DHT22;2549;52.128;21.068;2022-10-13T13:42:50;15.70;93.80
5061;DHT22;2549;52.128;21.068;2022-10-13T13:45:20;15.60;93.80
5061;DHT22;2549;52.128;21.068;2022-10-13T13:47:47;15.60;93.90
5061;DHT22;2549;52.128;21.068;2022-10-13T13:50:27;15.60;94.10
5061;DHT22;2549;52.128;21.068;2022-10-13T13:52:58;15.60;94.10
5061;DHT22;2549;52.128;21.068;2022-10-13T13:55:26;15.60;94.20
5061;DHT22;2549;52.128;21.068;2022-10-13T13:57:53;15.60;94.20
5061;DHT22;2549;52.128;21.068;2022-10-13T14:00:20;15.60;94.20
5061;DHT22;2549;52.128;21.068;2022-10-13T14:02:47;15.50;94.30
5061;DHT22;2549;52.128;21.068;2022-10-13T14:05:14;15.50;94.30
5061;DHT22;2549;52.128;21.068;2022-10-13T14:07:41;15.50;94.30
5061;DHT22;2549;52.128;21.068;2022-10-13T14:10:09;15.50;94.30
5061;DHT22;2549;52.128;21.068;2022-10-13T14:12:36;15.50;94.30
5061;DHT22;2549;52.128;21.068;2022-10-13T14:15:04;15.50;94.30
5061;DHT22;2549;52.128;21.068;2022-10-13T14:17:31;15.50;94.10
5061;DHT22;2549;52.128;21.068;2022-10-13T14:19:57;15.50;94.00
5061;DHT22;2549;52.128;21.068;2022-10-13T14:22:24;15.50;93.90
5061;DHT22;2549;52.128;21.068;2022-10-13T14:24:52;15.50;93.90
5061;DHT22;2549;52.128;21.068;2022-10-13T14:27:19;15.50;94.00
5061;DHT22;2549;52.128;21.068;2022-10-13T14:29:45;15.50;94.00
5061;DHT22;2549;52.128;21.068;2022-10-13T14:32:12;15.50;94.00
5061;DHT22;2549;52.128;21.068;2022-10-13T14:34:39;15.50;94.00
5061;DHT22;2549;52.128;21.068;2022-10-13T14:37:06;15.50;94.20
5061;DHT22;2549;52.128;21.068;2022-10-13T14:39:33;15.50;94.30
5061;DHT22;2549;52.128;21.068;2022-10-13T14:42:00;15.50;94.30
5061;DHT22;2549;52.128;21.068;2022-10-13T14:44:27;15.40;94.30
5061;DHT22;2549;52.128;21.068;2022-10-13T14:46:53;15.50;94.40
5061;DHT22;2549;52.128;21.068;2022-10-13T14:49:20;15.50;94.40
5061;DHT22;2549;52.128;21.068;2022-10-13T14:51:47;15.40;94.30
5061;DHT22;2549;52.128;21.068;2022-10-13T14:54:14;15.40;94.30
5061;DHT22;2549;52.128;21.068;2022-10-13T14:56:41;15.40;94.30
5061;DHT22;2549;52.128;21.068;2022-10-13T14:59:10;15.40;94.30
5061;DHT22;2549;52.128;21.068;2022-10-13T15:01:38;15.40;94.50
5061;DHT22;2549;52.128;21.068;2022-10-13T15:04:09;15.40;94.50
5061;DHT22;2549;52.128;21.068;2022-10-13T15:06:36;15.40;94.60
5061;DHT22;2549;52.128;21.068;2022-10-13T15:09:07;15.40;94.60
5061;DHT22;2549;52.128;21.068;2022-10-13T15:11:39;15.30;94.50
5061;DHT22;2549;52.128;21.068;2022-10-13T15:14:06;15.30;94.60
5061;DHT22;2549;52.128;21.068;2022-10-13T15:16:33;15.30;94.60
5061;DHT22;2549;52.128;21.068;2022-10-13T15:19:00;15.30;94.70
5061;DHT22;2549;52.128;21.068;2022-10-13T15:21:28;15.20;94.90
5061;DHT22;2549;52.128;21.068;2022-10-13T15:23:55;15.30;95.10
5061;DHT22;2549;52.128;21.068;2022-10-13T15:26:22;15.20;95.20
5061;DHT22;2549;52.128;21.068;2022-10-13T15:28:50;15.20;95.20
5061;DHT22;2549;52.128;21.068;2022-10-13T15:31:18;15.20;95.40
5061;DHT22;2549;52.128;21.068;2022-10-13T15:33:47;15.10;95.50
5061;DHT22;2549;52.128;21.068;2022-10-13T15:36:15;15.10;95.70
5061;DHT22;2549;52.128;21.068;2022-10-13T15:38:42;15.10;95.80
5061;DHT22;2549;52.128;21.068;2022-10-13T15:41:09;15.00;95.90
5061;DHT22;2549;52.128;21.068;2022-10-13T15:43:37;15.00;96.10
5061;DHT22;2549;52.128;21.068;2022-10-13T15:46:12;15.00;96.10
5061;DHT22;2549;52.128;21.068;2022-10-13T15:48:47;14.90;95.90
5061;DHT22;2549;52.128;21.068;2022-10-13T15:51:16;14.90;95.90
5061;DHT22;2549;52.128;21.068;2022-10-13T15:53:46;14.90;95.90
5061;DHT22;2549;52.128;21.068;2022-10-13T15:56:13;14.80;95.80
5061;DHT22;2549;52.128;21.068;2022-10-13T15:58:40;14.80;95.80
5061;DHT22;2549;52.128;21.068;2022-10-13T16:01:08;14.80;95.80
5061;DHT22;2549;52.128;21.068;2022-10-13T16:03:36;14.80;95.80
5061;DHT22;2549;52.128;21.068;2022-10-13T16:06:05;14.80;96.00
5061;DHT22;2549;52.128;21.068;2022-10-13T16:08:36;14.70;96.10
5061;DHT22;2549;52.128;21.068;2022-10-13T16:11:13;14.70;96.30
5061;DHT22;2549;52.128;21.068;2022-10-13T16:13:48;14.60;96.40
5061;DHT22;2549;52.128;21.068;2022-10-13T16:16:16;14.60;96.50
5061;DHT22;2549;52.128;21.068;2022-10-13T16:18:43;14.60;96.60
5061;DHT22;2549;52.128;21.068;2022-10-13T16:21:20;14.50;96.60
5061;DHT22;2549;52.128;21.068;2022-10-13T16:23:48;14.50;96.60
5061;DHT22;2549;52.128;21.068;2022-10-13T16:26:15;14.50;96.60
5061;DHT22;2549;52.128;21.068;2022-10-13T16:28:43;14.50;96.50
5061;DHT22;2549;52.128;21.068;2022-10-13T16:31:13;14.40;96.50
5061;DHT22;2549;52.128;21.068;2022-10-13T16:33:42;14.40;96.40
5061;DHT22;2549;52.128;21.068;2022-10-13T16:36:12;14.40;96.30
5061;DHT22;2549;52.128;21.068;2022-10-13T16:38:39;14.40;96.40
5061;DHT22;2549;52.128;21.068;2022-10-13T16:41:09;14.40;96.50
5061;DHT22;2549;52.128;21.068;2022-10-13T16:43:36;14.30;96.50
5061;DHT22;2549;52.128;21.068;2022-10-13T16:46:04;14.30;96.60
5061;DHT22;2549;52.128;21.068;2022-10-13T16:48:32;14.30;96.80
5061;DHT22;2549;52.128;21.068;2022-10-13T16:51:07;14.30;96.90
5061;DHT22;2549;52.128;21.068;2022-10-13T16:53:35;14.20;97.10
5061;DHT22;2549;52.128;21.068;2022-10-13T16:56:03;14.20;96.70
5061;DHT22;2549;52.128;21.068;2022-10-13T16:58:30;14.20;96.70
5061;DHT22;2549;52.128;21.068;2022-10-13T17:01:08;14.10;96.60
5061;DHT22;2549;52.128;21.068;2022-10-13T17:03:36;14.10;96.70
5061;DHT22;2549;52.128;21.068;2022-10-13T17:06:04;14.10;96.70
5061;DHT22;2549;52.128;21.068;2022-10-13T17:08:32;14.10;96.80
5061;DHT22;2549;52.128;21.068;2022-10-13T17:10:59;14.10;96.90
5061;DHT22;2549;52.128;21.068;2022-10-13T17:13:26;14.00;96.90
5061;DHT22;2549;52.128;21.068;2022-10-13T17:15:54;14.00;96.90
5061;DHT22;2549;52.128;21.068;2022-10-13T17:18:23;14.00;96.90
5061;DHT22;2549;52.128;21.068;2022-10-13T17:20:55;13.90;96.80
5061;DHT22;2549;52.128;21.068;2022-10-13T17:23:23;13.90;96.90
5061;DHT22;2549;52.128;21.068;2022-10-13T17:25:51;13.90;96.90
5061;DHT22;2549;52.128;21.068;2022-10-13T17:28:19;13.90;97.00
5061;DHT22;2549;52.128;21.068;2022-10-13T17:31:00;13.90;96.90
5061;DHT22;2549;52.128;21.068;2022-10-13T17:33:30;13.90;96.90
5061;DHT22;2549;52.128;21.068;2022-10-13T17:36:02;13.90;97.00
5061;DHT22;2549;52.128;21.068;2022-10-13T17:38:30;13.90;97.00
5061;DHT22;2549;52.128;21.068;2022-10-13T17:41:01;13.90;97.10
5061;DHT22;2549;52.128;21.068;2022-10-13T17:43:30;13.80;97.10
5061;DHT22;2549;52.128;21.068;2022-10-13T17:46:15;13.80;97.10
5061;DHT22;2549;52.128;21.068;2022-10-13T17:49:03;13.80;97.00
5061;DHT22;2549;52.128;21.068;2022-10-13T17:51:30;13.80;97.10
5061;DHT22;2549;52.128;21.068;2022-10-13T17:53:58;13.80;97.10
5061;DHT22;2549;52.128;21.068;2022-10-13T17:56:25;13.80;97.10
5061;DHT22;2549;52.128;21.068;2022-10-13T17:58:52;13.80;97.10
5061;DHT22;2549;52.128;21.068;2022-10-13T18:01:22;13.80;97.10
5061;DHT22;2549;52.128;21.068;2022-10-13T18:03:52;13.80;97.10